createdAt,value
2019-04-28T00:04:45.869Z,9.69
2019-04-28T00:09:51.025Z,9.73
2019-04-28T00:14:54.592Z,9.69
2019-04-28T00:20:01.340Z,9.66
2019-04-28T00:25:21.481Z,9.68
2019-04-28T00:30:25.566Z,9.68
2019-04-28T00:35:28.927Z,9.60
2019-04-28T00:40:32.330Z,9.62
2019-04-28T00:45:35.739Z,9.61
2019-04-28T00:50:39.230Z,9.58
2019-04-28T00:55:42.650Z,9.58
2019-04-28T01:01:04.141Z,9.56
2019-04-28T01:06:07.620Z,9.56
2019-04-28T01:11:11.769Z,9.57
2019-04-28T01:16:32.840Z,9.56
2019-04-28T01:21:37.963Z,9.57
2019-04-28T01:26:41.635Z,9.55
2019-04-28T01:31:55.689Z,9.55
2019-04-28T01:36:59.815Z,9.52
2019-04-28T01:42:03.206Z,9.49
2019-04-28T01:47:06.639Z,9.46
2019-04-28T01:52:10.479Z,9.56
2019-04-28T01:57:13.929Z,9.54
2019-04-28T02:02:17.337Z,9.53
2019-04-28T02:07:20.742Z,9.47
2019-04-28T02:12:24.168Z,9.50
2019-04-28T02:17:27.592Z,9.43
2019-04-28T02:22:32.818Z,9.45
2019-04-28T02:27:36.222Z,9.52
2019-04-28T02:32:40.730Z,9.50
2019-04-28T02:37:44.804Z,9.52
2019-04-28T02:42:48.227Z,9.46
2019-04-28T02:47:53.396Z,9.47
2019-04-28T02:53:01.891Z,9.43
2019-04-28T02:58:05.662Z,9.44
2019-04-28T03:03:11.017Z,9.45
2019-04-28T03:08:14.842Z,9.39
2019-04-28T03:13:20.932Z,9.40
2019-04-28T03:18:23.559Z,9.38
2019-04-28T03:23:27.060Z,9.42
2019-04-28T03:28:33.734Z,9.41
2019-04-28T03:33:43.554Z,9.39
2019-04-28T03:38:42.553Z,9.40
2019-04-28T03:43:46.095Z,9.32
2019-04-28T03:48:50.890Z,9.37
2019-04-28T03:53:54.762Z,9.37
2019-04-28T03:59:00.440Z,9.39
2019-04-28T04:04:03.679Z,9.34
2019-04-28T04:09:07.139Z,9.31
2019-04-28T04:14:12.194Z,9.33
2019-04-28T04:19:16.895Z,9.24
2019-04-28T04:24:20.624Z,9.20
2019-04-28T04:29:24.202Z,9.21
2019-04-28T04:34:30.113Z,9.17
2019-04-28T04:39:32.761Z,9.14
2019-04-28T04:44:38.800Z,9.13
2019-04-28T04:49:41.332Z,9.16
2019-04-28T04:54:44.750Z,9.22
2019-04-28T04:59:50.019Z,9.20
2019-04-28T05:05:04.257Z,9.12
2019-04-28T05:10:07.751Z,9.15
2019-04-28T05:15:11.940Z,9.13
2019-04-28T05:20:15.558Z,9.21
2019-04-28T05:25:24.574Z,9.22
2019-04-28T05:30:29.681Z,9.24
2019-04-28T05:35:35.570Z,9.34
2019-04-28T05:40:39.850Z,9.38
2019-04-28T05:45:44.232Z,9.46
2019-04-28T05:50:50.029Z,9.54
2019-04-28T05:55:55.199Z,9.48
2019-04-28T06:01:20.382Z,9.59
2019-04-28T06:06:25.547Z,9.61
2019-04-28T06:11:30.848Z,9.70
2019-04-28T06:16:34.232Z,9.83
2019-04-28T06:21:38.010Z,9.84
2019-04-28T06:26:41.441Z,10.02
2019-04-28T06:31:44.868Z,9.98
2019-04-28T06:36:48.311Z,10.14
2019-04-28T06:41:51.732Z,10.27
2019-04-28T06:46:55.188Z,10.37
2019-04-28T06:51:58.595Z,10.39
2019-04-28T06:57:02.057Z,10.53
2019-04-28T07:02:05.526Z,10.64
2019-04-28T07:07:09.037Z,10.70
2019-04-28T07:12:12.450Z,10.82
2019-04-28T07:17:15.881Z,10.95
2019-04-28T07:22:23.823Z,11.17
2019-04-28T07:27:27.259Z,11.45
2019-04-28T07:32:30.696Z,11.56
2019-04-28T07:37:34.132Z,11.82
2019-04-28T07:42:37.602Z,11.98
2019-04-28T07:47:41.127Z,12.17
2019-04-28T07:52:48.770Z,12.43
2019-04-28T07:57:52.338Z,12.70
2019-04-28T08:02:55.798Z,12.79
2019-04-28T08:07:59.211Z,12.82
2019-04-28T08:13:02.658Z,12.96
2019-04-28T08:18:06.181Z,13.09
2019-04-28T08:23:09.607Z,13.14
2019-04-28T08:28:13.402Z,13.26
2019-04-28T08:33:33.152Z,13.53
2019-04-28T08:38:35.617Z,13.53
2019-04-28T08:43:39.069Z,13.41
2019-04-28T08:48:42.502Z,13.56
2019-04-28T08:53:45.964Z,13.63
2019-04-28T08:58:49.442Z,13.83
2019-04-28T09:03:52.870Z,13.52
2019-04-28T09:08:56.288Z,13.32
2019-04-28T09:13:59.781Z,13.55
2019-04-28T09:19:03.221Z,13.67
2019-04-28T09:24:06.787Z,13.54
2019-04-28T09:29:10.215Z,13.83
2019-04-28T09:34:13.914Z,13.88
2019-04-28T09:39:18.980Z,14.00
2019-04-28T09:44:22.503Z,13.95
2019-04-28T09:49:28.582Z,14.25
2019-04-28T09:54:32.223Z,14.43
2019-04-28T09:59:37.191Z,14.61
2019-04-28T10:04:41.901Z,14.91
2019-04-28T10:09:48.255Z,15.29
2019-04-28T10:14:51.763Z,15.50
2019-04-28T10:19:55.189Z,15.87
2019-04-28T10:24:58.649Z,16.54
2019-04-28T10:30:02.188Z,17.19
2019-04-28T10:35:10.385Z,17.24
2019-04-28T10:40:24.369Z,17.69
2019-04-28T10:45:29.521Z,17.45
2019-04-28T10:50:32.973Z,17.90
2019-04-28T10:55:39.461Z,17.46
2019-04-28T11:00:45.929Z,17.42
2019-04-28T11:05:49.567Z,17.26
2019-04-28T11:10:53.972Z,17.62
2019-04-28T11:15:57.541Z,16.95
2019-04-28T11:21:00.997Z,17.17
2019-04-28T11:26:04.508Z,16.67
2019-04-28T11:31:08.064Z,16.88
2019-04-28T11:36:11.579Z,16.57
2019-04-28T11:41:15.059Z,16.64
2019-04-28T11:46:20.104Z,16.71
2019-04-28T11:51:23.595Z,16.95
2019-04-28T11:56:27.093Z,17.20
2019-04-28T12:01:30.798Z,18.36
2019-04-28T12:06:34.204Z,18.97
2019-04-28T12:11:39.298Z,19.17
2019-04-28T12:16:50.142Z,18.04
2019-04-28T12:21:55.581Z,18.29
2019-04-28T12:26:58.986Z,18.24
2019-04-28T12:32:02.460Z,17.56
2019-04-28T12:37:05.932Z,17.65
2019-04-28T12:42:09.499Z,17.48
2019-04-28T12:47:12.952Z,17.32
2019-04-28T12:52:16.973Z,17.36
2019-04-28T12:57:22.562Z,17.28
2019-04-28T13:02:42.982Z,17.05
2019-04-28T13:07:46.546Z,16.97
2019-04-28T13:12:50.065Z,16.91
2019-04-28T13:17:53.500Z,16.61
2019-04-28T13:22:56.917Z,16.44
2019-04-28T13:28:01.236Z,15.99
2019-04-28T13:33:04.798Z,16.21
2019-04-28T13:38:08.183Z,16.03
2019-04-28T13:43:11.613Z,15.92
2019-04-28T13:48:15.042Z,15.91
2019-04-28T13:53:26.244Z,15.83
2019-04-28T13:58:37.878Z,15.75
2019-04-28T14:03:48.924Z,15.90
2019-04-28T14:08:52.455Z,15.44
2019-04-28T14:13:55.924Z,15.80
2019-04-28T14:18:59.380Z,16.36
2019-04-28T14:24:03.870Z,17.39
2019-04-28T14:29:07.455Z,18.15
2019-04-28T14:34:12.006Z,18.20
2019-04-28T14:39:16.981Z,18.45
2019-04-28T14:44:20.469Z,17.99
2019-04-28T14:49:23.867Z,17.23
2019-04-28T14:54:31.731Z,16.83
2019-04-28T14:59:35.165Z,16.79
2019-04-28T15:04:56.748Z,16.91
2019-04-28T15:10:17.178Z,16.23
2019-04-28T15:15:21.661Z,16.33
2019-04-28T15:20:25.324Z,16.29
2019-04-28T15:25:28.757Z,16.18
2019-04-28T15:30:32.943Z,15.56
2019-04-28T15:35:36.345Z,15.31
2019-04-28T15:40:39.882Z,15.37
2019-04-28T15:45:46.806Z,15.31
2019-04-28T15:50:50.244Z,15.21
2019-04-28T15:55:55.329Z,15.14
2019-04-28T16:00:58.980Z,15.13
2019-04-28T16:06:02.518Z,15.26
2019-04-28T16:11:06.004Z,15.87
2019-04-28T16:16:09.403Z,16.45
2019-04-28T16:21:12.840Z,16.31
2019-04-28T16:26:16.297Z,16.01
2019-04-28T16:31:19.720Z,15.37
2019-04-28T16:36:23.227Z,15.30
2019-04-28T16:41:35.051Z,15.40
2019-04-28T16:46:38.480Z,15.27
2019-04-28T16:51:41.902Z,15.04
2019-04-28T16:56:59.428Z,15.06
2019-04-28T17:02:10.338Z,14.84
2019-04-28T17:07:13.953Z,14.78
2019-04-28T17:12:17.443Z,14.64
2019-04-28T17:17:20.896Z,14.54
2019-04-28T17:22:24.388Z,14.34
2019-04-28T17:27:27.832Z,14.15
2019-04-28T17:32:31.451Z,13.81
2019-04-28T17:37:35.030Z,13.54
2019-04-28T17:42:38.448Z,13.38
2019-04-28T17:47:41.951Z,13.18
2019-04-28T17:52:45.923Z,13.19
2019-04-28T17:57:49.608Z,13.21
2019-04-28T18:02:54.690Z,13.00
2019-04-28T18:07:59.743Z,12.99
2019-04-28T18:13:03.342Z,12.78
2019-04-28T18:18:17.482Z,12.60
2019-04-28T18:23:21.066Z,12.61
2019-04-28T18:28:24.649Z,12.37
2019-04-28T18:33:39.038Z,12.07
2019-04-28T18:38:44.158Z,11.89
2019-04-28T18:44:04.091Z,11.47
2019-04-28T18:49:07.599Z,11.52
2019-04-28T18:54:11.439Z,11.20
2019-04-28T18:59:14.986Z,10.96
2019-04-28T19:04:19.121Z,10.99
2019-04-28T19:09:30.038Z,10.85
2019-04-28T19:14:47.388Z,10.51
2019-04-28T19:19:50.870Z,10.30
2019-04-28T19:24:54.371Z,10.36
2019-04-28T19:29:59.594Z,10.38
2019-04-28T19:35:03.005Z,10.26
2019-04-28T19:40:07.262Z,10.28
2019-04-28T19:45:12.703Z,10.22
2019-04-28T19:50:17.093Z,9.95
2019-04-28T19:55:22.183Z,9.88
2019-04-28T20:00:27.432Z,9.63
2019-04-28T20:05:30.872Z,9.58
2019-04-28T20:10:34.325Z,9.54
2019-04-28T20:15:37.841Z,9.43
2019-04-28T20:20:41.294Z,9.38
2019-04-28T20:25:46.547Z,9.19
2019-04-28T20:30:49.934Z,9.43
2019-04-28T20:35:54.996Z,9.32
2019-04-28T20:41:00.126Z,9.21
2019-04-28T20:46:03.554Z,9.16
2019-04-28T20:51:06.960Z,9.10
2019-04-28T20:56:10.487Z,9.05
2019-04-28T21:01:13.920Z,8.95
2019-04-28T21:06:17.372Z,8.78
2019-04-28T21:11:20.795Z,8.81
2019-04-28T21:16:24.247Z,8.70
2019-04-28T21:21:27.743Z,8.71
2019-04-28T21:26:31.240Z,8.78
2019-04-28T21:31:34.700Z,8.70
2019-04-28T21:36:38.155Z,8.52
2019-04-28T21:41:42.142Z,8.67
2019-04-28T21:46:47.299Z,8.57
2019-04-28T21:51:50.744Z,8.55
2019-04-28T21:56:54.252Z,8.54
2019-04-28T22:01:57.763Z,8.50
2019-04-28T22:07:01.205Z,8.15
2019-04-28T22:12:04.845Z,8.14
2019-04-28T22:17:08.413Z,8.13
2019-04-28T22:22:11.956Z,8.25
2019-04-28T22:27:17.670Z,8.32
2019-04-28T22:32:21.132Z,8.22
2019-04-28T22:37:24.679Z,8.18
2019-04-28T22:42:28.143Z,8.26
2019-04-28T22:47:31.676Z,8.18
2019-04-28T22:52:35.203Z,8.15
2019-04-28T22:57:55.227Z,8.09
2019-04-28T23:02:58.703Z,7.98
2019-04-28T23:08:02.113Z,7.75
2019-04-28T23:13:05.555Z,7.75
2019-04-28T23:18:09.052Z,7.76
2019-04-28T23:23:12.753Z,7.64
2019-04-28T23:28:16.172Z,7.52
2019-04-28T23:33:19.618Z,7.59
2019-04-28T23:38:23.039Z,7.48
2019-04-28T23:43:26.482Z,7.51
2019-04-28T23:48:29.905Z,7.49
2019-04-28T23:53:50.933Z,7.37
2019-04-28T23:58:54.380Z,7.20
